createdAt,value
2018-10-05T00:03:41.735Z,16
2018-10-05T00:13:49.118Z,13
2018-10-05T00:23:55.108Z,14
2018-10-05T00:34:04.281Z,17
2018-10-05T00:44:13.731Z,13
2018-10-05T00:54:22.411Z,13
2018-10-05T01:04:31.129Z,14
2018-10-05T01:14:39.213Z,15
2018-10-05T01:24:47.829Z,14
2018-10-05T01:34:57.219Z,14
2018-10-05T01:45:06.187Z,17
2018-10-05T01:55:15.020Z,16
2018-10-05T02:05:24.515Z,13
2018-10-05T02:15:32.053Z,13
2018-10-05T02:25:40.023Z,11
2018-10-05T02:35:49.200Z,11
2018-10-05T02:45:58.944Z,8
2018-10-05T02:56:06.829Z,7
2018-10-05T03:06:15.530Z,9
2018-10-05T03:16:24.031Z,6
2018-10-05T03:26:31.836Z,7
2018-10-05T03:36:38.927Z,5
2018-10-05T03:46:46.719Z,5
2018-10-05T03:56:54.432Z,5
2018-10-05T04:07:01.814Z,6
2018-10-05T04:17:11.047Z,6
2018-10-05T04:27:21.025Z,5
2018-10-05T04:37:28.419Z,5
2018-10-05T04:47:38.304Z,5
2018-10-05T04:57:45.088Z,5
2018-10-05T05:07:51.405Z,5
2018-10-05T05:17:59.806Z,5
2018-10-05T05:28:08.405Z,5
2018-10-05T05:38:17.854Z,4
2018-10-05T05:48:26.384Z,4
2018-10-05T05:58:37.004Z,7
2018-10-05T06:08:47.274Z,6
2018-10-05T06:18:53.296Z,4
2018-10-05T06:29:00.807Z,4
2018-10-05T06:31:18.640Z,4
2018-10-05T06:41:22.979Z,5
2018-10-05T06:51:32.654Z,4
2018-10-05T07:01:40.903Z,8
2018-10-05T07:11:47.975Z,4
2018-10-05T07:21:58.492Z,5
2018-10-05T07:32:05.613Z,3
2018-10-05T07:42:12.681Z,3
2018-10-05T07:52:23.658Z,3
2018-10-05T08:02:33.088Z,3
2018-10-05T08:12:42.620Z,4
2018-10-05T08:22:52.985Z,4
2018-10-05T08:33:00.273Z,4
2018-10-05T08:36:18.508Z,4
2018-10-05T08:45:02.067Z,5
2018-10-05T08:55:09.814Z,4
2018-10-05T08:59:24.504Z,3
2018-10-05T09:09:31.556Z,4
2018-10-05T09:19:41.046Z,4
2018-10-05T09:29:50.329Z,4
2018-10-05T09:39:58.866Z,5
2018-10-05T09:50:06.318Z,5
2018-10-05T10:00:18.981Z,4
2018-10-05T10:10:37.595Z,4
2018-10-05T10:20:47.424Z,4
2018-10-05T10:30:56.310Z,4
2018-10-05T10:41:04.322Z,5
2018-10-05T10:51:13.311Z,8
2018-10-05T11:01:24.851Z,6
2018-10-05T11:11:33.090Z,5
2018-10-05T11:13:50.205Z,5
2018-10-05T11:23:58.415Z,9
2018-10-05T11:34:06.555Z,7
2018-10-05T11:43:29.584Z,7
2018-10-05T11:53:35.988Z,6
2018-10-05T12:03:44.201Z,6
2018-10-05T12:13:53.054Z,5
2018-10-05T12:24:02.510Z,4
2018-10-05T12:34:10.588Z,4
2018-10-05T12:44:19.300Z,3
2018-10-05T12:54:25.646Z,3
2018-10-05T13:04:34.220Z,4
2018-10-05T13:14:40.994Z,6
2018-10-05T13:24:53.100Z,5
2018-10-05T13:35:02.859Z,4
2018-10-05T13:45:11.133Z,4
2018-10-05T13:55:19.393Z,5
2018-10-05T14:05:27.213Z,4
2018-10-05T14:11:13.248Z,4
2018-10-05T14:21:18.112Z,9
2018-10-05T14:31:27.067Z,4
2018-10-05T14:41:37.788Z,6
2018-10-05T14:51:46.437Z,7
2018-10-05T15:01:55.622Z,6
2018-10-05T15:12:05.619Z,16
2018-10-05T15:22:12.459Z,6
2018-10-05T15:32:21.839Z,7
2018-10-05T15:42:33.040Z,5
2018-10-05T15:52:39.834Z,6
2018-10-05T16:02:47.906Z,9
2018-10-05T16:12:59.900Z,6
2018-10-05T16:23:05.616Z,6
2018-10-05T16:33:13.469Z,8
2018-10-05T16:43:23.032Z,5
2018-10-05T16:53:31.458Z,8
2018-10-05T17:03:39.583Z,10
2018-10-05T17:13:48.262Z,7
2018-10-05T17:23:56.922Z,7
2018-10-05T17:34:06.324Z,6
2018-10-05T17:44:13.894Z,9
2018-10-05T17:54:20.802Z,6
2018-10-05T18:04:30.181Z,6
2018-10-05T18:14:38.685Z,7
2018-10-05T18:24:46.616Z,6
2018-10-05T18:34:55.727Z,6
2018-10-05T18:45:05.148Z,6
2018-10-05T18:55:13.894Z,6
2018-10-05T19:05:20.913Z,8
2018-10-05T19:15:29.424Z,6
2018-10-05T19:25:40.168Z,7
2018-10-05T19:35:49.162Z,7
2018-10-05T19:45:57.128Z,7
2018-10-05T19:56:06.064Z,6
2018-10-05T20:06:16.023Z,6
2018-10-05T20:16:25.111Z,8
2018-10-05T20:26:35.507Z,6
2018-10-05T20:36:45.765Z,7
2018-10-05T20:46:49.567Z,7
2018-10-05T20:56:57.133Z,68
2018-10-05T21:07:07.524Z,85
2018-10-05T21:17:17.299Z,66
2018-10-05T21:27:24.873Z,41
2018-10-05T21:37:32.836Z,46
2018-10-05T21:47:41.714Z,31
2018-10-05T21:57:52.877Z,42
2018-10-05T22:08:00.919Z,38
2018-10-05T22:18:07.632Z,38
2018-10-05T22:28:16.932Z,7
2018-10-05T22:38:24.697Z,6
2018-10-05T22:48:33.242Z,7
2018-10-05T22:58:40.982Z,7
2018-10-05T23:08:49.377Z,5
2018-10-05T23:18:58.377Z,6
2018-10-05T23:29:07.889Z,7
2018-10-05T23:39:16.315Z,7
2018-10-05T23:49:24.243Z,4
2018-10-05T23:59:34.485Z,4
